This is the latest recevied weather packets stored in our database for station/object KM4KBD. If no packets are shown the sender has not sent any weather packets the latest 10 day(s).
| Time | Temp. | Humidity | Pressure | Rain* | Wind** | Luminosity | Snow |
|---|---|---|---|---|---|---|---|
| 1777496030 | 18.33° C | 72% | 1017.7 hPa | 0 mm | - | 280 W/m² | - |
| 1777495726 | 18.33° C | 75% | 1017.4 hPa | 0 mm | - | 342 W/m² | - |
| 1777495423 | 17.78° C | 76% | 1017.6 hPa | 0 mm | - | 552 W/m² | - |
| 1777495119 | 17.22° C | 76% | 1017.7 hPa | 0 mm | - | 244 W/m² | - |
| 1777494816 | 17.22° C | 77% | 1017.6 hPa | 0 mm | - | 273 W/m² | - |
| 1777494513 | 17.22° C | 79% | 1017.7 hPa | 0 mm | - | 218 W/m² | - |
| 1777494211 | 17.78° C | 80% | 1017.6 hPa | 0 mm | - | 315 W/m² | - |
| 1777493907 | 16.67° C | 82% | 1017.9 hPa | 0 mm | - | 466 W/m² | - |
| 1777493606 | 16.11° C | 84% | 1017.7 hPa | 0 mm | - | 242 W/m² | - |
| 1777493303 | 16.11° C | 85% | 1017.8 hPa | 0 mm | - | 110 W/m² | - |
| 1777492999 | 16.67° C | 84% | 1017.5 hPa | 0 mm | - | 101 W/m² | - |
| 1777492696 | 17.22° C | 83% | 1017.4 hPa | 0 mm | - | 151 W/m² | - |
| 1777492396 | 17.22° C | 84% | 1017.5 hPa | 0 mm | - | 265 W/m² | - |
| 1777492094 | 17.22° C | 84% | 1017.6 hPa | 0 mm | - | 87 W/m² | - |
| 1777491791 | 17.22° C | 83% | 1017.4 hPa | 0 mm | - | 227 W/m² | - |
| 1777491487 | 17.78° C | 82% | 1017.3 hPa | 0 mm | - | 213 W/m² | - |
| 1777491185 | 17.78° C | 84% | 1017.2 hPa | 0 mm | - | 234 W/m² | - |
| 1777490880 | 18.89° C | 83% | 1016.9 hPa | 0 mm | - | 237 W/m² | - |
| 1777490576 | 18.33° C | 85% | 1016.8 hPa | 0 mm | - | 350 W/m² | - |
| 1777490273 | 18.33° C | 85% | 1016.8 hPa | 0 mm | - | 186 W/m² | - |
| 1777489970 | 19.44° C | 84% | 1016.5 hPa | 0 mm | - | 378 W/m² | - |
| 1777489668 | 18.89° C | 86% | 1016.6 hPa | 0 mm | - | 481 W/m² | - |
| 1777489364 | 18.33° C | 86% | 1016.9 hPa | 0 mm | - | 387 W/m² | - |
| 1777489061 | 18.33° C | 88% | 1016.6 hPa | 0 mm | - | 147 W/m² | - |
| 1777488758 | 18.33° C | 86% | 1016.6 hPa | 0 mm | - | 99 W/m² | - |
* Rain latest hour (hover to see other rain measurements)
** Current wind speed in m/s (hover to see current wind gust speed)